Terminal Aerodrome Forecast
Issued by NWS Upton, NY

Home | Current Version | Previous Version | Text Only | Print | Product List | Glossary On
Versions: 1 2 3 4 5 6 7 8 9 10 11 12 13 14 15 16 17 18 19 20 21 22 23 24 25 26 27 28 29 30 31 32 33 34 35 36
000
FTUS41 KOKX 300243 AAA
TAFJFK
TAF AMD
KJFK 300243Z 3003/3106 17007KT P6SM BKN250
     FM300800 17006KT 3SM BR SCT006 BKN010
     FM300900 17005KT 2SM BR BKN006 BKN010
     FM301300 18010KT P6SM FEW006 SCT015
     FM301800 18015KT P6SM FEW035
     FM302000 18018G24KT P6SM SCT035 SCT100=

USA.gov is the U.S. government's official web portal to all federal, state and local government web resources and services.